KPNS/PNS METAR and TAF weather

Enter ICAO airport designator
Station Type Date Time Source
KPNS METAR 2020/11/27 03:19 UTC NOAA

KPNS 270319Z 00000KT 1/4SM R17/1400V2200FT FG VV002 21/21 A3009 RMK AO2 T02110211


Station Type Date Time Source
KPNS Decoded METAR 2020/11/27 03:19 UTC NOAA

PENSACOLA REGIONAL AIRPORT, FL, United States (KPNS) 30-29N 087-11W 38M
Nov 26, 2020 - 10:19 PM EST / 2020.11.27 0319 UTC
Wind: Calm (direction variable):0
Visibility: 1/4 mile(s):0
Sky conditions: obscured
Weather: fog
Temperature: 70.0 F (21.1 C)
Dew Point: 70.0 F (21.1 C)
Relative Humidity: 100%
Pressure (altimeter): 30.09 in. Hg (1018 hPa)
ob: KPNS 270319Z 00000KT 1/4SM R17/1400V2200FT FG VV002 21/21 A3009 RMK AO2 T02110211
cycle: 3

Station Type Date Time Source
KPNS TAF 2020/11/27 03:09 UTC NOAA

TAF
AMD KPNS 270303Z 2703/2724 11003KT 1/4SM FG VV002
FM270800 VRB03KT 1/4SM FG OVC004
FM271200 VRB03KT 2SM BR OVC004
FM271400 VRB04KT 6SM BR OVC005
FM271800 16006KT P6SM BKN025

Example: see airport list